sensor_id;sensor_type;location;lat;lon;timestamp;P1;durP1;ratioP1;P2;durP2;ratioP2
23596;SDS011;40226;50.874;4.394;2024-03-06T00:01:50;12.48;;;8.15;;
23596;SDS011;40226;50.874;4.394;2024-03-06T00:04:16;12.80;;;7.55;;
23596;SDS011;40226;50.874;4.394;2024-03-06T00:06:41;15.13;;;8.23;;
23596;SDS011;40226;50.874;4.394;2024-03-06T00:09:07;11.95;;;7.13;;
23596;SDS011;40226;50.874;4.394;2024-03-06T00:11:33;12.35;;;8.02;;
23596;SDS011;40226;50.874;4.394;2024-03-06T00:14:01;14.45;;;8.25;;
23596;SDS011;40226;50.874;4.394;2024-03-06T00:16:27;16.10;;;8.50;;
23596;SDS011;40226;50.874;4.394;2024-03-06T00:18:53;12.48;;;7.78;;
23596;SDS011;40226;50.874;4.394;2024-03-06T00:21:20;11.43;;;7.50;;
23596;SDS011;40226;50.874;4.394;2024-03-06T00:23:45;11.32;;;7.95;;
23596;SDS011;40226;50.874;4.394;2024-03-06T00:26:11;13.18;;;7.90;;
23596;SDS011;40226;50.874;4.394;2024-03-06T00:28:38;13.57;;;7.72;;
23596;SDS011;40226;50.874;4.394;2024-03-06T00:31:07;10.93;;;7.47;;
23596;SDS011;40226;50.874;4.394;2024-03-06T00:33:32;11.52;;;7.70;;
23596;SDS011;40226;50.874;4.394;2024-03-06T00:35:58;10.95;;;8.40;;
23596;SDS011;40226;50.874;4.394;2024-03-06T00:38:23;12.85;;;8.23;;
23596;SDS011;40226;50.874;4.394;2024-03-06T00:40:49;12.98;;;8.13;;
23596;SDS011;40226;50.874;4.394;2024-03-06T00:43:15;13.07;;;8.00;;
23596;SDS011;40226;50.874;4.394;2024-03-06T00:45:41;11.57;;;7.90;;
23596;SDS011;40226;50.874;4.394;2024-03-06T00:48:06;11.73;;;7.85;;
23596;SDS011;40226;50.874;4.394;2024-03-06T00:50:32;13.80;;;8.50;;
23596;SDS011;40226;50.874;4.394;2024-03-06T00:52:58;14.68;;;8.27;;
23596;SDS011;40226;50.874;4.394;2024-03-06T00:55:24;14.80;;;8.25;;
23596;SDS011;40226;50.874;4.394;2024-03-06T00:57:49;12.82;;;8.23;;
23596;SDS011;40226;50.874;4.394;2024-03-06T01:00:15;13.82;;;8.70;;
23596;SDS011;40226;50.874;4.394;2024-03-06T01:02:41;13.27;;;8.25;;
23596;SDS011;40226;50.874;4.394;2024-03-06T01:05:06;13.20;;;8.43;;
23596;SDS011;40226;50.874;4.394;2024-03-06T01:07:32;13.32;;;8.48;;
23596;SDS011;40226;50.874;4.394;2024-03-06T01:09:59;14.23;;;9.00;;
23596;SDS011;40226;50.874;4.394;2024-03-06T01:12:26;12.77;;;8.85;;
23596;SDS011;40226;50.874;4.394;2024-03-06T01:14:52;11.45;;;8.30;;
23596;SDS011;40226;50.874;4.394;2024-03-06T01:17:17;11.80;;;8.43;;
23596;SDS011;40226;50.874;4.394;2024-03-06T01:19:43;13.73;;;9.30;;
23596;SDS011;40226;50.874;4.394;2024-03-06T01:22:09;11.88;;;8.27;;
23596;SDS011;40226;50.874;4.394;2024-03-06T01:24:35;14.68;;;8.80;;
23596;SDS011;40226;50.874;4.394;2024-03-06T01:27:01;14.27;;;8.68;;
23596;SDS011;40226;50.874;4.394;2024-03-06T01:29:31;15.07;;;9.35;;
23596;SDS011;40226;50.874;4.394;2024-03-06T01:31:56;13.75;;;9.18;;
23596;SDS011;40226;50.874;4.394;2024-03-06T01:34:22;14.48;;;10.00;;
23596;SDS011;40226;50.874;4.394;2024-03-06T01:36:48;16.35;;;9.98;;
23596;SDS011;40226;50.874;4.394;2024-03-06T01:39:13;15.65;;;9.30;;
23596;SDS011;40226;50.874;4.394;2024-03-06T01:41:48;17.15;;;10.02;;
23596;SDS011;40226;50.874;4.394;2024-03-06T01:44:18;15.55;;;10.05;;
23596;SDS011;40226;50.874;4.394;2024-03-06T01:46:44;15.43;;;9.80;;
23596;SDS011;40226;50.874;4.394;2024-03-06T01:49:10;15.90;;;10.40;;
23596;SDS011;40226;50.874;4.394;2024-03-06T01:51:38;18.25;;;10.68;;
23596;SDS011;40226;50.874;4.394;2024-03-06T01:54:05;18.60;;;10.95;;
23596;SDS011;40226;50.874;4.394;2024-03-06T01:56:34;17.15;;;10.88;;
23596;SDS011;40226;50.874;4.394;2024-03-06T01:59:03;18.10;;;10.93;;
23596;SDS011;40226;50.874;4.394;2024-03-06T02:01:29;17.17;;;10.32;;
23596;SDS011;40226;50.874;4.394;2024-03-06T02:03:56;14.50;;;10.63;;
23596;SDS011;40226;50.874;4.394;2024-03-06T02:06:21;15.27;;;10.18;;
23596;SDS011;40226;50.874;4.394;2024-03-06T02:08:47;16.73;;;10.63;;
23596;SDS011;40226;50.874;4.394;2024-03-06T02:11:13;15.85;;;10.77;;
23596;SDS011;40226;50.874;4.394;2024-03-06T02:13:40;18.65;;;11.02;;
23596;SDS011;40226;50.874;4.394;2024-03-06T02:16:06;17.70;;;11.32;;
23596;SDS011;40226;50.874;4.394;2024-03-06T02:18:32;17.05;;;11.02;;
23596;SDS011;40226;50.874;4.394;2024-03-06T02:20:58;17.92;;;10.98;;
23596;SDS011;40226;50.874;4.394;2024-03-06T02:23:24;16.38;;;11.32;;
23596;SDS011;40226;50.874;4.394;2024-03-06T02:25:49;15.77;;;10.77;;
23596;SDS011;40226;50.874;4.394;2024-03-06T02:28:15;15.95;;;10.63;;
23596;SDS011;40226;50.874;4.394;2024-03-06T02:30:42;21.90;;;11.20;;
23596;SDS011;40226;50.874;4.394;2024-03-06T02:33:08;19.88;;;11.07;;
23596;SDS011;40226;50.874;4.394;2024-03-06T02:35:34;16.33;;;10.93;;
23596;SDS011;40226;50.874;4.394;2024-03-06T02:38:04;17.23;;;11.40;;
23596;SDS011;40226;50.874;4.394;2024-03-06T02:40:31;20.45;;;10.90;;
23596;SDS011;40226;50.874;4.394;2024-03-06T02:42:57;15.75;;;10.93;;
23596;SDS011;40226;50.874;4.394;2024-03-06T02:45:22;17.30;;;11.07;;
23596;SDS011;40226;50.874;4.394;2024-03-06T02:47:48;18.25;;;11.63;;
23596;SDS011;40226;50.874;4.394;2024-03-06T02:50:14;17.48;;;11.10;;
23596;SDS011;40226;50.874;4.394;2024-03-06T02:52:40;16.00;;;11.13;;
23596;SDS011;40226;50.874;4.394;2024-03-06T02:55:06;19.90;;;11.73;;
23596;SDS011;40226;50.874;4.394;2024-03-06T02:57:32;18.75;;;11.75;;
23596;SDS011;40226;50.874;4.394;2024-03-06T02:59:57;16.20;;;11.80;;
23596;SDS011;40226;50.874;4.394;2024-03-06T03:02:23;16.65;;;10.65;;
23596;SDS011;40226;50.874;4.394;2024-03-06T03:04:50;17.88;;;11.70;;
23596;SDS011;40226;50.874;4.394;2024-03-06T03:07:17;16.85;;;11.38;;
23596;SDS011;40226;50.874;4.394;2024-03-06T03:09:44;17.67;;;11.40;;
23596;SDS011;40226;50.874;4.394;2024-03-06T03:12:10;17.13;;;12.02;;
23596;SDS011;40226;50.874;4.394;2024-03-06T03:14:36;17.70;;;11.90;;
23596;SDS011;40226;50.874;4.394;2024-03-06T03:17:03;16.20;;;11.68;;
23596;SDS011;40226;50.874;4.394;2024-03-06T03:19:31;20.58;;;12.98;;
23596;SDS011;40226;50.874;4.394;2024-03-06T03:21:56;16.50;;;11.40;;
23596;SDS011;40226;50.874;4.394;2024-03-06T03:24:23;20.05;;;12.23;;
23596;SDS011;40226;50.874;4.394;2024-03-06T03:26:50;19.65;;;12.18;;
23596;SDS011;40226;50.874;4.394;2024-03-06T03:29:16;18.25;;;12.57;;
23596;SDS011;40226;50.874;4.394;2024-03-06T03:31:42;20.73;;;12.80;;
23596;SDS011;40226;50.874;4.394;2024-03-06T03:34:08;18.98;;;12.43;;
23596;SDS011;40226;50.874;4.394;2024-03-06T03:36:34;20.58;;;13.02;;
23596;SDS011;40226;50.874;4.394;2024-03-06T03:38:59;18.02;;;12.13;;
23596;SDS011;40226;50.874;4.394;2024-03-06T03:41:25;20.83;;;12.70;;
23596;SDS011;40226;50.874;4.394;2024-03-06T03:43:51;21.98;;;13.35;;
23596;SDS011;40226;50.874;4.394;2024-03-06T03:46:16;22.73;;;13.25;;
23596;SDS011;40226;50.874;4.394;2024-03-06T03:48:42;21.23;;;13.02;;
23596;SDS011;40226;50.874;4.394;2024-03-06T03:51:08;24.17;;;13.27;;
23596;SDS011;40226;50.874;4.394;2024-03-06T03:53:33;20.58;;;13.40;;
23596;SDS011;40226;50.874;4.394;2024-03-06T03:55:59;19.92;;;13.90;;
23596;SDS011;40226;50.874;4.394;2024-03-06T03:58:25;25.02;;;14.00;;
23596;SDS011;40226;50.874;4.394;2024-03-06T04:00:51;22.42;;;14.23;;
23596;SDS011;40226;50.874;4.394;2024-03-06T04:03:20;21.55;;;13.95;;
23596;SDS011;40226;50.874;4.394;2024-03-06T04:05:47;25.83;;;13.88;;
23596;SDS011;40226;50.874;4.394;2024-03-06T04:08:13;23.75;;;14.27;;
23596;SDS011;40226;50.874;4.394;2024-03-06T04:10:39;24.45;;;14.95;;
23596;SDS011;40226;50.874;4.394;2024-03-06T04:13:04;24.00;;;14.60;;
23596;SDS011;40226;50.874;4.394;2024-03-06T04:15:31;23.67;;;14.77;;
23596;SDS011;40226;50.874;4.394;2024-03-06T04:17:57;24.80;;;16.00;;
23596;SDS011;40226;50.874;4.394;2024-03-06T04:20:23;26.70;;;15.98;;
23596;SDS011;40226;50.874;4.394;2024-03-06T04:22:48;26.60;;;15.65;;
23596;SDS011;40226;50.874;4.394;2024-03-06T04:25:15;26.30;;;15.75;;
23596;SDS011;40226;50.874;4.394;2024-03-06T04:27:41;28.95;;;17.05;;
23596;SDS011;40226;50.874;4.394;2024-03-06T04:30:07;28.52;;;16.73;;
23596;SDS011;40226;50.874;4.394;2024-03-06T04:32:34;24.92;;;15.95;;
23596;SDS011;40226;50.874;4.394;2024-03-06T04:34:59;27.77;;;15.85;;
23596;SDS011;40226;50.874;4.394;2024-03-06T04:37:25;32.53;;;15.48;;
23596;SDS011;40226;50.874;4.394;2024-03-06T04:39:51;26.55;;;15.80;;
23596;SDS011;40226;50.874;4.394;2024-03-06T04:42:17;26.48;;;15.13;;
23596;SDS011;40226;50.874;4.394;2024-03-06T04:44:44;27.77;;;14.40;;
23596;SDS011;40226;50.874;4.394;2024-03-06T04:47:10;34.22;;;16.65;;
23596;SDS011;40226;50.874;4.394;2024-03-06T04:49:36;31.92;;;16.80;;
23596;SDS011;40226;50.874;4.394;2024-03-06T04:52:02;25.75;;;15.70;;
23596;SDS011;40226;50.874;4.394;2024-03-06T04:54:28;23.63;;;14.40;;
23596;SDS011;40226;50.874;4.394;2024-03-06T04:56:54;26.23;;;14.38;;
23596;SDS011;40226;50.874;4.394;2024-03-06T04:59:20;24.17;;;14.48;;
23596;SDS011;40226;50.874;4.394;2024-03-06T05:01:46;26.38;;;14.88;;
23596;SDS011;40226;50.874;4.394;2024-03-06T05:04:12;26.98;;;14.95;;
23596;SDS011;40226;50.874;4.394;2024-03-06T05:06:38;25.17;;;15.05;;
23596;SDS011;40226;50.874;4.394;2024-03-06T05:09:03;26.23;;;14.23;;
23596;SDS011;40226;50.874;4.394;2024-03-06T05:11:30;28.80;;;14.60;;
23596;SDS011;40226;50.874;4.394;2024-03-06T05:13:58;28.77;;;15.70;;
23596;SDS011;40226;50.874;4.394;2024-03-06T05:16:26;27.08;;;15.57;;
23596;SDS011;40226;50.874;4.394;2024-03-06T05:18:52;24.70;;;15.32;;
23596;SDS011;40226;50.874;4.394;2024-03-06T05:21:18;25.48;;;14.93;;
23596;SDS011;40226;50.874;4.394;2024-03-06T05:23:45;25.73;;;15.18;;
23596;SDS011;40226;50.874;4.394;2024-03-06T05:26:10;24.95;;;15.10;;
23596;SDS011;40226;50.874;4.394;2024-03-06T05:28:36;26.65;;;15.13;;
23596;SDS011;40226;50.874;4.394;2024-03-06T05:31:13;31.42;;;17.15;;
23596;SDS011;40226;50.874;4.394;2024-03-06T05:33:42;30.40;;;16.65;;
23596;SDS011;40226;50.874;4.394;2024-03-06T05:36:08;30.75;;;18.33;;
23596;SDS011;40226;50.874;4.394;2024-03-06T05:38:34;36.80;;;17.77;;
23596;SDS011;40226;50.874;4.394;2024-03-06T05:41:00;31.15;;;17.20;;
23596;SDS011;40226;50.874;4.394;2024-03-06T05:43:25;32.70;;;16.90;;
23596;SDS011;40226;50.874;4.394;2024-03-06T05:45:52;29.48;;;17.60;;
23596;SDS011;40226;50.874;4.394;2024-03-06T05:48:18;30.02;;;17.52;;
23596;SDS011;40226;50.874;4.394;2024-03-06T05:50:44;31.42;;;17.83;;
23596;SDS011;40226;50.874;4.394;2024-03-06T05:53:09;35.08;;;18.63;;
23596;SDS011;40226;50.874;4.394;2024-03-06T05:55:36;34.65;;;19.67;;
23596;SDS011;40226;50.874;4.394;2024-03-06T05:58:02;34.63;;;18.35;;
23596;SDS011;40226;50.874;4.394;2024-03-06T06:00:27;32.22;;;17.95;;
23596;SDS011;40226;50.874;4.394;2024-03-06T06:02:53;37.08;;;18.60;;
23596;SDS011;40226;50.874;4.394;2024-03-06T06:05:19;40.15;;;18.88;;
23596;SDS011;40226;50.874;4.394;2024-03-06T06:07:45;31.13;;;17.08;;
23596;SDS011;40226;50.874;4.394;2024-03-06T06:10:11;28.65;;;16.75;;
23596;SDS011;40226;50.874;4.394;2024-03-06T06:12:37;31.33;;;16.63;;
23596;SDS011;40226;50.874;4.394;2024-03-06T06:15:02;30.17;;;17.10;;
23596;SDS011;40226;50.874;4.394;2024-03-06T06:17:28;33.53;;;16.60;;
23596;SDS011;40226;50.874;4.394;2024-03-06T06:19:54;32.42;;;18.55;;
23596;SDS011;40226;50.874;4.394;2024-03-06T06:22:19;31.33;;;19.83;;
23596;SDS011;40226;50.874;4.394;2024-03-06T06:24:45;30.95;;;17.85;;
23596;SDS011;40226;50.874;4.394;2024-03-06T06:27:11;27.92;;;16.83;;
23596;SDS011;40226;50.874;4.394;2024-03-06T06:29:36;32.85;;;17.60;;
23596;SDS011;40226;50.874;4.394;2024-03-06T06:32:02;31.38;;;17.80;;
23596;SDS011;40226;50.874;4.394;2024-03-06T06:34:28;29.00;;;17.25;;
23596;SDS011;40226;50.874;4.394;2024-03-06T06:36:53;29.55;;;17.52;;
23596;SDS011;40226;50.874;4.394;2024-03-06T06:39:22;31.40;;;18.20;;
23596;SDS011;40226;50.874;4.394;2024-03-06T06:41:48;36.10;;;17.83;;
23596;SDS011;40226;50.874;4.394;2024-03-06T06:44:13;31.15;;;17.85;;
23596;SDS011;40226;50.874;4.394;2024-03-06T06:46:39;31.08;;;18.20;;
23596;SDS011;40226;50.874;4.394;2024-03-06T06:49:05;34.20;;;19.15;;
23596;SDS011;40226;50.874;4.394;2024-03-06T06:51:31;32.40;;;18.23;;
23596;SDS011;40226;50.874;4.394;2024-03-06T06:53:56;31.70;;;19.52;;
23596;SDS011;40226;50.874;4.394;2024-03-06T06:56:22;37.58;;;19.50;;
23596;SDS011;40226;50.874;4.394;2024-03-06T06:58:49;37.97;;;20.65;;
23596;SDS011;40226;50.874;4.394;2024-03-06T07:01:14;35.40;;;19.60;;
23596;SDS011;40226;50.874;4.394;2024-03-06T07:03:41;34.50;;;18.77;;
23596;SDS011;40226;50.874;4.394;2024-03-06T07:06:07;40.58;;;19.27;;
23596;SDS011;40226;50.874;4.394;2024-03-06T07:08:33;40.38;;;19.00;;
23596;SDS011;40226;50.874;4.394;2024-03-06T07:10:59;30.70;;;18.48;;
23596;SDS011;40226;50.874;4.394;2024-03-06T07:13:24;36.17;;;19.63;;
23596;SDS011;40226;50.874;4.394;2024-03-06T07:15:50;34.10;;;18.33;;
23596;SDS011;40226;50.874;4.394;2024-03-06T07:18:16;30.88;;;18.80;;
23596;SDS011;40226;50.874;4.394;2024-03-06T07:20:48;33.20;;;18.05;;
23596;SDS011;40226;50.874;4.394;2024-03-06T07:23:13;34.78;;;18.55;;
23596;SDS011;40226;50.874;4.394;2024-03-06T07:25:39;35.20;;;17.27;;
23596;SDS011;40226;50.874;4.394;2024-03-06T07:28:05;27.42;;;16.70;;
23596;SDS011;40226;50.874;4.394;2024-03-06T07:30:30;28.90;;;16.38;;
23596;SDS011;40226;50.874;4.394;2024-03-06T07:32:56;28.05;;;15.45;;
23596;SDS011;40226;50.874;4.394;2024-03-06T07:35:22;27.58;;;15.95;;
23596;SDS011;40226;50.874;4.394;2024-03-06T07:37:48;32.70;;;17.15;;
23596;SDS011;40226;50.874;4.394;2024-03-06T07:40:14;31.25;;;16.15;;
23596;SDS011;40226;50.874;4.394;2024-03-06T07:42:39;24.17;;;15.50;;
23596;SDS011;40226;50.874;4.394;2024-03-06T07:45:05;26.23;;;15.98;;
23596;SDS011;40226;50.874;4.394;2024-03-06T07:47:35;28.20;;;15.55;;
23596;SDS011;40226;50.874;4.394;2024-03-06T07:50:02;23.70;;;15.02;;
23596;SDS011;40226;50.874;4.394;2024-03-06T07:52:30;26.42;;;14.20;;
23596;SDS011;40226;50.874;4.394;2024-03-06T07:54:56;25.52;;;13.77;;
23596;SDS011;40226;50.874;4.394;2024-03-06T07:57:22;24.90;;;14.10;;
23596;SDS011;40226;50.874;4.394;2024-03-06T07:59:48;25.27;;;13.82;;
23596;SDS011;40226;50.874;4.394;2024-03-06T08:02:14;26.05;;;14.40;;
23596;SDS011;40226;50.874;4.394;2024-03-06T08:04:40;23.35;;;13.68;;
23596;SDS011;40226;50.874;4.394;2024-03-06T08:07:05;28.08;;;14.45;;
23596;SDS011;40226;50.874;4.394;2024-03-06T08:09:31;30.60;;;14.82;;
23596;SDS011;40226;50.874;4.394;2024-03-06T08:11:56;22.00;;;13.73;;
23596;SDS011;40226;50.874;4.394;2024-03-06T08:14:22;23.20;;;13.30;;
23596;SDS011;40226;50.874;4.394;2024-03-06T08:16:48;23.40;;;12.13;;
23596;SDS011;40226;50.874;4.394;2024-03-06T08:19:14;31.77;;;12.27;;
23596;SDS011;40226;50.874;4.394;2024-03-06T08:21:40;26.42;;;12.65;;
23596;SDS011;40226;50.874;4.394;2024-03-06T08:24:05;22.73;;;11.93;;
23596;SDS011;40226;50.874;4.394;2024-03-06T08:26:31;23.25;;;11.27;;
23596;SDS011;40226;50.874;4.394;2024-03-06T08:28:56;20.65;;;11.98;;
23596;SDS011;40226;50.874;4.394;2024-03-06T08:31:22;20.38;;;11.95;;
23596;SDS011;40226;50.874;4.394;2024-03-06T08:33:48;21.52;;;12.05;;
23596;SDS011;40226;50.874;4.394;2024-03-06T08:36:13;19.25;;;10.85;;
23596;SDS011;40226;50.874;4.394;2024-03-06T08:38:39;20.30;;;11.13;;
23596;SDS011;40226;50.874;4.394;2024-03-06T08:41:05;25.65;;;11.52;;
23596;SDS011;40226;50.874;4.394;2024-03-06T08:43:31;19.45;;;11.23;;
23596;SDS011;40226;50.874;4.394;2024-03-06T08:45:57;21.45;;;10.82;;
23596;SDS011;40226;50.874;4.394;2024-03-06T08:48:23;17.45;;;11.48;;
23596;SDS011;40226;50.874;4.394;2024-03-06T08:50:48;17.95;;;10.75;;
23596;SDS011;40226;50.874;4.394;2024-03-06T08:53:15;24.13;;;11.52;;
23596;SDS011;40226;50.874;4.394;2024-03-06T08:55:41;18.65;;;10.63;;
23596;SDS011;40226;50.874;4.394;2024-03-06T08:58:07;16.60;;;9.77;;
23596;SDS011;40226;50.874;4.394;2024-03-06T09:00:34;17.65;;;11.18;;
23596;SDS011;40226;50.874;4.394;2024-03-06T09:02:59;19.55;;;10.32;;
23596;SDS011;40226;50.874;4.394;2024-03-06T09:05:25;18.55;;;9.57;;
23596;SDS011;40226;50.874;4.394;2024-03-06T09:07:51;21.77;;;9.98;;
23596;SDS011;40226;50.874;4.394;2024-03-06T09:10:17;19.35;;;10.32;;
23596;SDS011;40226;50.874;4.394;2024-03-06T09:12:44;20.98;;;10.70;;
23596;SDS011;40226;50.874;4.394;2024-03-06T09:15:10;18.50;;;10.60;;
23596;SDS011;40226;50.874;4.394;2024-03-06T09:17:36;20.25;;;11.10;;
23596;SDS011;40226;50.874;4.394;2024-03-06T09:20:03;17.10;;;11.32;;
23596;SDS011;40226;50.874;4.394;2024-03-06T09:22:35;23.98;;;11.88;;
23596;SDS011;40226;50.874;4.394;2024-03-06T09:25:01;26.67;;;11.75;;
23596;SDS011;40226;50.874;4.394;2024-03-06T09:27:27;23.52;;;12.63;;
23596;SDS011;40226;50.874;4.394;2024-03-06T09:29:52;21.17;;;11.98;;
23596;SDS011;40226;50.874;4.394;2024-03-06T09:32:18;20.65;;;11.90;;
23596;SDS011;40226;50.874;4.394;2024-03-06T09:34:44;19.80;;;11.88;;
23596;SDS011;40226;50.874;4.394;2024-03-06T09:37:10;29.20;;;15.40;;
23596;SDS011;40226;50.874;4.394;2024-03-06T09:39:35;20.77;;;9.63;;
23596;SDS011;40226;50.874;4.394;2024-03-06T09:42:01;18.02;;;9.88;;
23596;SDS011;40226;50.874;4.394;2024-03-06T09:44:28;17.15;;;10.50;;
23596;SDS011;40226;50.874;4.394;2024-03-06T09:46:54;20.60;;;11.35;;
23596;SDS011;40226;50.874;4.394;2024-03-06T09:49:21;19.30;;;11.48;;
23596;SDS011;40226;50.874;4.394;2024-03-06T09:51:48;17.52;;;10.50;;
23596;SDS011;40226;50.874;4.394;2024-03-06T09:54:18;16.65;;;9.80;;
23596;SDS011;40226;50.874;4.394;2024-03-06T09:56:45;17.33;;;9.95;;
23596;SDS011;40226;50.874;4.394;2024-03-06T09:59:14;18.45;;;10.48;;
23596;SDS011;40226;50.874;4.394;2024-03-06T10:01:49;17.55;;;10.45;;
23596;SDS011;40226;50.874;4.394;2024-03-06T10:06:44;17.75;;;10.40;;
23596;SDS011;40226;50.874;4.394;2024-03-06T10:09:11;17.92;;;10.23;;
23596;SDS011;40226;50.874;4.394;2024-03-06T10:11:40;18.15;;;10.02;;
23596;SDS011;40226;50.874;4.394;2024-03-06T10:14:07;17.30;;;10.63;;
23596;SDS011;40226;50.874;4.394;2024-03-06T10:16:35;19.77;;;9.70;;
23596;SDS011;40226;50.874;4.394;2024-03-06T10:19:14;18.27;;;9.55;;
23596;SDS011;40226;50.874;4.394;2024-03-06T10:21:44;14.98;;;8.95;;
23596;SDS011;40226;50.874;4.394;2024-03-06T10:24:28;16.52;;;9.23;;
23596;SDS011;40226;50.874;4.394;2024-03-06T10:26:54;15.45;;;9.27;;
23596;SDS011;40226;50.874;4.394;2024-03-06T10:29:23;15.90;;;9.60;;
23596;SDS011;40226;50.874;4.394;2024-03-06T10:31:56;14.60;;;9.75;;
23596;SDS011;40226;50.874;4.394;2024-03-06T10:34:25;15.20;;;9.32;;
23596;SDS011;40226;50.874;4.394;2024-03-06T10:36:53;16.10;;;10.25;;
23596;SDS011;40226;50.874;4.394;2024-03-06T10:39:20;17.27;;;9.65;;
23596;SDS011;40226;50.874;4.394;2024-03-06T10:41:48;13.57;;;9.02;;
23596;SDS011;40226;50.874;4.394;2024-03-06T10:44:18;13.98;;;8.50;;
23596;SDS011;40226;50.874;4.394;2024-03-06T10:46:58;15.52;;;9.40;;
23596;SDS011;40226;50.874;4.394;2024-03-06T10:49:27;17.25;;;9.43;;
23596;SDS011;40226;50.874;4.394;2024-03-06T10:51:58;14.55;;;9.10;;
23596;SDS011;40226;50.874;4.394;2024-03-06T10:54:30;14.90;;;8.35;;
23596;SDS011;40226;50.874;4.394;2024-03-06T10:56:57;11.55;;;6.93;;
23596;SDS011;40226;50.874;4.394;2024-03-06T10:59:27;14.57;;;7.05;;
23596;SDS011;40226;50.874;4.394;2024-03-06T11:01:54;12.85;;;6.10;;
23596;SDS011;40226;50.874;4.394;2024-03-06T11:04:21;12.55;;;7.20;;
23596;SDS011;40226;50.874;4.394;2024-03-06T11:06:53;12.38;;;7.72;;
23596;SDS011;40226;50.874;4.394;2024-03-06T11:09:24;11.55;;;7.47;;
23596;SDS011;40226;50.874;4.394;2024-03-06T11:11:51;15.55;;;7.70;;
23596;SDS011;40226;50.874;4.394;2024-03-06T11:14:21;13.60;;;8.00;;
23596;SDS011;40226;50.874;4.394;2024-03-06T11:17:01;13.55;;;6.90;;
23596;SDS011;40226;50.874;4.394;2024-03-06T11:19:30;23.45;;;7.45;;
23596;SDS011;40226;50.874;4.394;2024-03-06T11:21:56;13.45;;;7.05;;
23596;SDS011;40226;50.874;4.394;2024-03-06T11:24:23;13.57;;;7.65;;
23596;SDS011;40226;50.874;4.394;2024-03-06T11:27:04;9.63;;;6.78;;
23596;SDS011;40226;50.874;4.394;2024-03-06T11:32:58;15.38;;;6.70;;
23596;SDS011;40226;50.874;4.394;2024-03-06T11:35:28;10.90;;;5.80;;
23596;SDS011;40226;50.874;4.394;2024-03-06T11:37:54;14.05;;;6.45;;
23596;SDS011;40226;50.874;4.394;2024-03-06T11:40:23;12.88;;;6.95;;
23596;SDS011;40226;50.874;4.394;2024-03-06T11:42:52;14.00;;;6.40;;
23596;SDS011;40226;50.874;4.394;2024-03-06T11:45:18;9.93;;;6.95;;
23596;SDS011;40226;50.874;4.394;2024-03-06T11:47:59;16.25;;;8.30;;
23596;SDS011;40226;50.874;4.394;2024-03-06T11:50:26;11.88;;;6.55;;
23596;SDS011;40226;50.874;4.394;2024-03-06T11:52:56;17.58;;;7.03;;
23596;SDS011;40226;50.874;4.394;2024-03-06T11:55:22;15.75;;;6.60;;
23596;SDS011;40226;50.874;4.394;2024-03-06T11:57:50;17.00;;;7.32;;
23596;SDS011;40226;50.874;4.394;2024-03-06T12:00:16;11.65;;;5.78;;
23596;SDS011;40226;50.874;4.394;2024-03-06T12:02:43;8.35;;;5.43;;
23596;SDS011;40226;50.874;4.394;2024-03-06T12:05:09;10.70;;;6.18;;
23596;SDS011;40226;50.874;4.394;2024-03-06T12:07:56;9.88;;;5.75;;
23596;SDS011;40226;50.874;4.394;2024-03-06T12:10:21;10.15;;;5.90;;
23596;SDS011;40226;50.874;4.394;2024-03-06T12:12:47;13.18;;;5.70;;
23596;SDS011;40226;50.874;4.394;2024-03-06T12:15:14;9.00;;;4.60;;
23596;SDS011;40226;50.874;4.394;2024-03-06T12:17:47;9.23;;;5.28;;
23596;SDS011;40226;50.874;4.394;2024-03-06T12:20:15;12.27;;;5.13;;
23596;SDS011;40226;50.874;4.394;2024-03-06T12:22:44;11.60;;;5.75;;
23596;SDS011;40226;50.874;4.394;2024-03-06T12:25:20;10.88;;;5.18;;
23596;SDS011;40226;50.874;4.394;2024-03-06T12:27:47;10.13;;;4.97;;
23596;SDS011;40226;50.874;4.394;2024-03-06T12:30:16;11.75;;;4.90;;
23596;SDS011;40226;50.874;4.394;2024-03-06T12:32:43;9.95;;;5.68;;
23596;SDS011;40226;50.874;4.394;2024-03-06T12:35:29;15.80;;;5.38;;
23596;SDS011;40226;50.874;4.394;2024-03-06T12:37:55;9.07;;;4.47;;
23596;SDS011;40226;50.874;4.394;2024-03-06T12:40:21;8.65;;;4.78;;
23596;SDS011;40226;50.874;4.394;2024-03-06T12:42:47;11.95;;;5.40;;
23596;SDS011;40226;50.874;4.394;2024-03-06T12:45:14;12.32;;;5.68;;
23596;SDS011;40226;50.874;4.394;2024-03-06T12:47:44;11.90;;;5.57;;
23596;SDS011;40226;50.874;4.394;2024-03-06T12:50:12;9.48;;;5.18;;
23596;SDS011;40226;50.874;4.394;2024-03-06T12:52:38;14.95;;;5.53;;
23596;SDS011;40226;50.874;4.394;2024-03-06T12:55:04;8.93;;;4.85;;
23596;SDS011;40226;50.874;4.394;2024-03-06T12:57:32;8.98;;;4.90;;
23596;SDS011;40226;50.874;4.394;2024-03-06T12:59:59;14.18;;;5.97;;
23596;SDS011;40226;50.874;4.394;2024-03-06T13:02:25;10.60;;;5.57;;
23596;SDS011;40226;50.874;4.394;2024-03-06T13:04:51;11.07;;;5.43;;
23596;SDS011;40226;50.874;4.394;2024-03-06T13:07:16;11.43;;;5.70;;
23596;SDS011;40226;50.874;4.394;2024-03-06T13:09:42;11.15;;;5.78;;
23596;SDS011;40226;50.874;4.394;2024-03-06T13:12:08;11.63;;;5.60;;
23596;SDS011;40226;50.874;4.394;2024-03-06T13:14:34;25.27;;;8.18;;
23596;SDS011;40226;50.874;4.394;2024-03-06T13:16:59;18.60;;;6.60;;
23596;SDS011;40226;50.874;4.394;2024-03-06T13:19:25;10.93;;;5.10;;
23596;SDS011;40226;50.874;4.394;2024-03-06T13:21:51;10.40;;;5.38;;
23596;SDS011;40226;50.874;4.394;2024-03-06T13:24:17;10.52;;;4.90;;
23596;SDS011;40226;50.874;4.394;2024-03-06T13:26:44;10.15;;;3.95;;
23596;SDS011;40226;50.874;4.394;2024-03-06T13:29:13;8.38;;;4.47;;
23596;SDS011;40226;50.874;4.394;2024-03-06T13:31:39;8.38;;;3.95;;
23596;SDS011;40226;50.874;4.394;2024-03-06T13:34:04;8.50;;;4.50;;
23596;SDS011;40226;50.874;4.394;2024-03-06T13:36:30;13.32;;;5.07;;
23596;SDS011;40226;50.874;4.394;2024-03-06T13:38:56;8.38;;;4.35;;
23596;SDS011;40226;50.874;4.394;2024-03-06T13:41:22;13.63;;;4.28;;
23596;SDS011;40226;50.874;4.394;2024-03-06T13:43:48;12.43;;;5.20;;
23596;SDS011;40226;50.874;4.394;2024-03-06T13:46:13;11.60;;;5.32;;
23596;SDS011;40226;50.874;4.394;2024-03-06T13:48:39;10.05;;;4.90;;
23596;SDS011;40226;50.874;4.394;2024-03-06T13:51:05;9.35;;;4.53;;
23596;SDS011;40226;50.874;4.394;2024-03-06T13:53:31;6.70;;;3.70;;
23596;SDS011;40226;50.874;4.394;2024-03-06T13:55:56;7.88;;;3.85;;
23596;SDS011;40226;50.874;4.394;2024-03-06T13:58:22;7.28;;;3.63;;
23596;SDS011;40226;50.874;4.394;2024-03-06T14:00:48;11.90;;;5.15;;
23596;SDS011;40226;50.874;4.394;2024-03-06T14:03:14;8.60;;;4.20;;
23596;SDS011;40226;50.874;4.394;2024-03-06T14:05:40;7.18;;;4.07;;
23596;SDS011;40226;50.874;4.394;2024-03-06T14:08:05;12.38;;;4.18;;
23596;SDS011;40226;50.874;4.394;2024-03-06T14:10:32;9.55;;;4.18;;
23596;SDS011;40226;50.874;4.394;2024-03-06T14:13:02;10.38;;;4.13;;
23596;SDS011;40226;50.874;4.394;2024-03-06T14:15:28;5.97;;;3.85;;
23596;SDS011;40226;50.874;4.394;2024-03-06T14:17:53;9.35;;;3.63;;
23596;SDS011;40226;50.874;4.394;2024-03-06T14:20:19;6.43;;;3.22;;
23596;SDS011;40226;50.874;4.394;2024-03-06T14:22:46;5.05;;;3.25;;
23596;SDS011;40226;50.874;4.394;2024-03-06T14:25:12;13.02;;;5.40;;
23596;SDS011;40226;50.874;4.394;2024-03-06T14:27:37;9.65;;;4.15;;
23596;SDS011;40226;50.874;4.394;2024-03-06T14:30:03;8.57;;;4.10;;
23596;SDS011;40226;50.874;4.394;2024-03-06T14:32:32;9.07;;;4.93;;